createdAt,value
2019-03-15T00:01:58.921Z,100.00
2019-03-15T00:04:28.584Z,100.00
2019-03-15T00:06:58.264Z,97.37
2019-03-15T00:09:27.922Z,94.29
2019-03-15T00:11:57.582Z,97.52
2019-03-15T00:14:27.205Z,100.00
2019-03-15T00:16:56.843Z,98.03
2019-03-15T00:19:26.531Z,97.67
2019-03-15T00:21:56.151Z,94.99
2019-03-15T00:24:25.734Z,96.77
2019-03-15T00:26:55.383Z,92.80
2019-03-15T00:29:25.020Z,91.36
2019-03-15T00:31:54.778Z,91.61
2019-03-15T00:34:24.397Z,93.45
2019-03-15T00:36:54.026Z,89.91
2019-03-15T00:39:23.651Z,98.41
2019-03-15T00:41:53.253Z,96.69
2019-03-15T00:44:22.944Z,99.75
2019-03-15T00:46:52.593Z,98.19
2019-03-15T00:49:22.192Z,99.09
2019-03-15T00:51:51.844Z,98.64
2019-03-15T00:54:21.458Z,97.93
2019-03-15T00:56:51.145Z,97.27
2019-03-15T00:59:20.808Z,95.93
2019-03-15T01:01:50.406Z,95.55
2019-03-15T01:04:20.105Z,95.14
2019-03-15T01:06:49.721Z,91.92
2019-03-15T01:09:19.350Z,90.06
2019-03-15T01:11:48.994Z,88.98
2019-03-15T01:14:18.698Z,89.15
2019-03-15T01:16:48.267Z,88.10
2019-03-15T01:19:17.853Z,88.50
2019-03-15T01:21:47.536Z,86.63
2019-03-15T01:24:17.143Z,85.51
2019-03-15T01:26:46.735Z,85.40
2019-03-15T01:29:16.355Z,85.54
2019-03-15T01:31:45.980Z,83.96
2019-03-15T01:34:15.699Z,86.70
2019-03-15T01:36:45.310Z,89.91
2019-03-15T01:39:14.895Z,92.06
2019-03-15T01:41:44.541Z,93.76
2019-03-15T01:44:14.203Z,94.09
2019-03-15T01:46:43.926Z,88.70
2019-03-15T01:49:13.587Z,90.49
2019-03-15T01:51:43.205Z,90.71
2019-03-15T01:54:13.594Z,88.23
2019-03-15T01:56:43.403Z,92.86
2019-03-15T01:59:13.074Z,94.37
2019-03-15T02:01:42.698Z,95.32
2019-03-15T02:04:12.345Z,95.00
2019-03-15T02:06:41.940Z,96.75
2019-03-15T02:09:11.556Z,97.03
2019-03-15T02:11:41.203Z,96.88
2019-03-15T02:14:10.828Z,95.63
2019-03-15T02:16:40.462Z,96.41
2019-03-15T02:19:10.394Z,94.23
2019-03-15T02:21:40.214Z,92.96
2019-03-15T02:24:09.874Z,87.84
2019-03-15T02:26:39.493Z,89.71
2019-03-15T02:29:09.047Z,86.78
2019-03-15T02:31:38.695Z,83.55
2019-03-15T02:34:08.310Z,87.15
2019-03-15T02:36:38.044Z,88.66
2019-03-15T02:39:07.943Z,89.37
2019-03-15T02:41:37.589Z,89.77
2019-03-15T02:44:07.201Z,86.71
2019-03-15T02:46:36.840Z,88.57
2019-03-15T02:49:08.261Z,82.37
2019-03-15T02:51:37.863Z,83.76
2019-03-15T02:54:07.475Z,82.43
2019-03-15T02:56:37.090Z,81.95
2019-03-15T02:59:06.654Z,82.15
2019-03-15T03:01:36.296Z,77.52
2019-03-15T03:04:06.076Z,75.24
2019-03-15T03:06:35.676Z,71.53
2019-03-15T03:09:07.805Z,71.37
2019-03-15T03:11:37.486Z,71.60
2019-03-15T03:14:07.109Z,69.54
2019-03-15T03:16:36.694Z,70.19
2019-03-15T03:19:06.340Z,65.90
2019-03-15T03:21:35.951Z,72.27
2019-03-15T03:24:05.642Z,77.62
2019-03-15T03:26:35.359Z,80.90
2019-03-15T03:29:04.948Z,80.12
2019-03-15T03:31:34.600Z,79.18
2019-03-15T03:34:04.243Z,75.32
2019-03-15T03:36:33.845Z,77.70
2019-03-15T03:39:04.067Z,78.20
2019-03-15T03:41:33.697Z,78.46
2019-03-15T03:44:03.299Z,78.09
2019-03-15T03:46:33.070Z,79.58
2019-03-15T03:49:02.629Z,78.35
2019-03-15T03:51:32.278Z,78.60
2019-03-15T03:54:01.865Z,87.44
2019-03-15T03:56:31.486Z,91.75
2019-03-15T03:59:01.107Z,97.14
2019-03-15T04:01:30.795Z,95.76
2019-03-15T04:04:00.705Z,94.90
2019-03-15T04:06:30.274Z,94.36
2019-03-15T04:08:59.900Z,90.97
2019-03-15T04:11:29.595Z,89.01
2019-03-15T04:13:59.185Z,86.83
2019-03-15T04:16:28.861Z,86.48
2019-03-15T04:18:58.447Z,84.09
2019-03-15T04:21:28.056Z,87.60
2019-03-15T04:23:57.684Z,83.86
2019-03-15T04:26:27.325Z,86.99
2019-03-15T04:28:57.245Z,87.26
2019-03-15T04:31:26.888Z,85.30
2019-03-15T04:33:56.480Z,87.79
2019-03-15T04:36:26.113Z,86.74
2019-03-15T04:38:55.696Z,87.28
2019-03-15T04:41:25.334Z,90.24
2019-03-15T04:43:55.004Z,92.13
2019-03-15T04:46:24.581Z,93.01
2019-03-15T04:48:54.220Z,89.39
2019-03-15T04:51:23.844Z,79.71
2019-03-15T04:53:53.478Z,77.71
2019-03-15T04:56:23.148Z,76.49
2019-03-15T04:58:52.756Z,73.46
2019-03-15T05:01:22.342Z,70.96
2019-03-15T05:03:52.069Z,70.71
2019-03-15T05:06:21.718Z,66.01
2019-03-15T05:08:51.283Z,66.17
2019-03-15T05:11:20.945Z,67.03
2019-03-15T05:13:50.531Z,65.47
2019-03-15T05:16:20.124Z,64.48
2019-03-15T05:18:49.804Z,65.00
2019-03-15T05:21:19.416Z,66.04
2019-03-15T05:23:49.020Z,64.63
2019-03-15T05:26:18.643Z,62.89
2019-03-15T05:28:48.237Z,63.54
2019-03-15T05:31:17.915Z,66.19
2019-03-15T05:33:47.600Z,67.76
2019-03-15T05:36:17.218Z,66.34
2019-03-15T05:38:46.860Z,66.07
2019-03-15T05:41:16.443Z,65.91
2019-03-15T05:43:46.185Z,67.44
2019-03-15T05:46:15.797Z,69.82
2019-03-15T05:48:45.351Z,70.72
2019-03-15T05:51:15.047Z,71.90
2019-03-15T05:53:44.619Z,72.63
2019-03-15T05:56:14.266Z,72.28
2019-03-15T05:58:43.898Z,68.90
2019-03-15T06:01:13.508Z,70.29
2019-03-15T06:03:48.506Z,71.62
2019-03-15T06:06:14.416Z,72.99
2019-03-15T06:08:44.064Z,73.59
2019-03-15T06:11:13.632Z,71.62
2019-03-15T06:13:43.207Z,70.44
2019-03-15T06:16:12.855Z,69.63
2019-03-15T06:18:42.455Z,69.57
2019-03-15T06:21:12.115Z,68.02
2019-03-15T06:23:41.688Z,67.93
2019-03-15T06:26:11.360Z,65.77
2019-03-15T06:28:40.992Z,67.71
2019-03-15T06:31:10.586Z,68.74
2019-03-15T06:33:40.218Z,67.52
2019-03-15T06:36:09.821Z,66.46
2019-03-15T06:38:39.407Z,64.91
2019-03-15T06:41:09.049Z,65.95
2019-03-15T06:43:38.607Z,67.45
2019-03-15T06:46:08.241Z,65.92
2019-03-15T06:48:37.838Z,65.65
2019-03-15T06:51:09.242Z,63.66
2019-03-15T06:53:38.762Z,64.10
2019-03-15T06:56:08.356Z,64.68
2019-03-15T06:58:38.012Z,63.48
2019-03-15T07:01:07.726Z,64.27
2019-03-15T07:03:37.326Z,63.56
2019-03-15T07:06:06.949Z,64.67
2019-03-15T07:08:36.519Z,60.56
2019-03-15T07:11:06.184Z,62.28
2019-03-15T07:13:35.831Z,61.45
2019-03-15T07:16:05.427Z,59.17
2019-03-15T07:18:35.595Z,56.69
2019-03-15T07:21:05.373Z,56.05
2019-03-15T07:23:35.019Z,58.34
2019-03-15T07:26:04.724Z,56.38
2019-03-15T07:28:34.412Z,54.14
2019-03-15T07:31:04.117Z,52.44
2019-03-15T07:33:33.728Z,53.28
2019-03-15T07:36:03.456Z,53.77
2019-03-15T07:38:33.043Z,53.93
2019-03-15T07:41:02.638Z,54.56
2019-03-15T07:43:32.227Z,55.51
2019-03-15T07:46:01.855Z,54.37
2019-03-15T07:48:31.526Z,53.53
2019-03-15T07:51:01.236Z,53.10
2019-03-15T07:53:30.841Z,50.43
2019-03-15T07:56:00.450Z,51.58
2019-03-15T07:58:30.049Z,54.67
2019-03-15T08:00:59.693Z,54.29
2019-03-15T08:03:29.332Z,52.66
2019-03-15T08:05:59.115Z,53.17
2019-03-15T08:08:28.828Z,52.41
2019-03-15T08:10:58.421Z,50.12
2019-03-15T08:13:28.050Z,51.85
2019-03-15T08:15:57.636Z,51.43
2019-03-15T08:18:27.202Z,51.63
2019-03-15T08:20:56.787Z,50.84
2019-03-15T08:23:26.362Z,50.07
2019-03-15T08:25:58.741Z,50.02
2019-03-15T08:28:28.402Z,49.54
2019-03-15T08:30:57.962Z,49.10
2019-03-15T08:33:27.535Z,50.13
2019-03-15T08:35:57.186Z,49.21
2019-03-15T08:38:26.823Z,46.16
2019-03-15T08:40:56.461Z,45.73
2019-03-15T08:43:26.084Z,45.78
2019-03-15T08:45:55.689Z,45.99
2019-03-15T08:48:25.260Z,47.94
2019-03-15T08:50:54.902Z,46.60
2019-03-15T08:53:24.479Z,45.05
2019-03-15T08:55:54.091Z,44.37
2019-03-15T08:58:23.719Z,43.11
2019-03-15T09:00:53.311Z,43.45
2019-03-15T09:03:28.296Z,44.66
2019-03-15T09:05:54.636Z,44.73
2019-03-15T09:08:24.273Z,44.55
2019-03-15T09:10:53.940Z,44.22
2019-03-15T09:13:23.539Z,42.69
2019-03-15T09:15:53.146Z,43.33
2019-03-15T09:18:22.757Z,41.72
2019-03-15T09:20:52.367Z,39.90
2019-03-15T09:23:21.973Z,39.50
2019-03-15T09:25:51.542Z,39.96
2019-03-15T09:28:21.180Z,40.63
2019-03-15T09:30:50.763Z,41.26
2019-03-15T09:33:20.340Z,40.67
2019-03-15T09:35:49.973Z,40.30
2019-03-15T09:38:19.602Z,39.10
2019-03-15T09:40:49.232Z,39.46
2019-03-15T09:43:18.827Z,38.82
2019-03-15T09:45:48.455Z,38.64
2019-03-15T09:48:18.110Z,37.33
2019-03-15T09:50:51.527Z,37.18
2019-03-15T09:53:19.016Z,37.78
2019-03-15T09:55:48.685Z,36.96
2019-03-15T09:58:18.289Z,33.65
2019-03-15T10:00:47.907Z,33.67
2019-03-15T10:03:22.403Z,33.32
2019-03-15T10:05:48.903Z,33.96
2019-03-15T10:08:18.478Z,35.56
2019-03-15T10:10:49.337Z,37.12
2019-03-15T10:13:19.045Z,36.21
2019-03-15T10:15:48.868Z,35.97
2019-03-15T10:18:18.492Z,34.32
2019-03-15T10:20:48.081Z,34.43
2019-03-15T10:23:24.533Z,35.39
2019-03-15T10:25:55.324Z,35.91
2019-03-15T10:28:24.955Z,35.77
2019-03-15T10:30:54.579Z,36.26
2019-03-15T10:33:24.197Z,36.11
2019-03-15T10:35:53.797Z,36.06
2019-03-15T10:38:23.361Z,35.36
2019-03-15T10:40:52.985Z,35.23
2019-03-15T10:43:22.574Z,37.17
2019-03-15T10:45:52.165Z,36.47
2019-03-15T10:48:25.631Z,35.53
2019-03-15T10:50:53.063Z,35.76
2019-03-15T10:53:22.687Z,34.66
2019-03-15T10:56:00.064Z,34.02
2019-03-15T10:58:23.584Z,30.83
2019-03-15T11:00:53.162Z,32.52
2019-03-15T11:03:22.790Z,32.43
2019-03-15T11:05:52.469Z,32.34
2019-03-15T11:08:24.179Z,31.75
2019-03-15T11:10:53.360Z,31.44
2019-03-15T11:13:22.933Z,32.71
2019-03-15T11:15:52.603Z,30.88
2019-03-15T11:18:22.249Z,31.37
2019-03-15T11:20:51.852Z,29.74
2019-03-15T11:23:21.466Z,29.38
2019-03-15T11:25:51.074Z,30.72
2019-03-15T11:28:20.687Z,29.73
2019-03-15T11:30:50.312Z,30.20
2019-03-15T11:33:19.888Z,30.23
2019-03-15T11:35:49.461Z,31.09
2019-03-15T11:38:19.043Z,31.35
2019-03-15T11:40:48.630Z,31.76
2019-03-15T11:43:18.285Z,28.71
2019-03-15T11:45:47.847Z,28.52
2019-03-15T11:48:17.479Z,27.93
2019-03-15T11:50:47.109Z,28.50
2019-03-15T11:53:18.932Z,28.56
2019-03-15T11:55:48.040Z,29.33
2019-03-15T11:58:17.611Z,29.43
2019-03-15T12:00:47.214Z,29.99
2019-03-15T12:03:16.783Z,30.06
2019-03-15T12:05:46.377Z,30.50
2019-03-15T12:08:15.985Z,29.87
2019-03-15T12:10:45.577Z,38.59
2019-03-15T12:13:15.300Z,29.53
2019-03-15T12:15:44.888Z,29.90
2019-03-15T12:18:14.472Z,29.60
2019-03-15T12:20:44.093Z,30.81
2019-03-15T12:23:13.684Z,38.12
2019-03-15T12:25:43.271Z,33.66
2019-03-15T12:28:12.907Z,37.21
2019-03-15T12:30:43.214Z,30.64
2019-03-15T12:33:12.977Z,29.72
2019-03-15T12:35:42.563Z,29.01
2019-03-15T12:38:12.196Z,29.86
2019-03-15T12:40:41.834Z,29.70
2019-03-15T12:43:11.415Z,30.28
2019-03-15T12:45:41.006Z,30.34
2019-03-15T12:48:10.683Z,30.68
2019-03-15T12:50:40.249Z,30.52
2019-03-15T12:53:09.994Z,29.89
2019-03-15T12:55:39.606Z,29.31
2019-03-15T12:58:09.186Z,30.12
2019-03-15T13:00:38.800Z,28.91
2019-03-15T13:03:08.520Z,28.62
2019-03-15T13:05:38.149Z,28.97
2019-03-15T13:08:07.747Z,28.36
2019-03-15T13:10:37.342Z,27.93
2019-03-15T13:13:06.940Z,28.84
2019-03-15T13:15:36.542Z,27.72
2019-03-15T13:18:06.333Z,27.08
2019-03-15T13:20:35.923Z,25.84
2019-03-15T13:23:05.493Z,26.19
2019-03-15T13:25:35.165Z,26.64
2019-03-15T13:28:04.778Z,27.37
2019-03-15T13:30:34.414Z,27.18
2019-03-15T13:33:03.997Z,27.11
2019-03-15T13:35:33.628Z,27.23
2019-03-15T13:38:03.225Z,27.93
2019-03-15T13:40:32.806Z,26.82
2019-03-15T13:43:02.451Z,26.10
2019-03-15T13:45:32.070Z,25.30
2019-03-15T13:48:01.767Z,23.60
2019-03-15T13:50:31.358Z,23.13
2019-03-15T13:53:00.971Z,24.45
2019-03-15T13:55:30.627Z,25.87
2019-03-15T13:58:00.227Z,26.35
2019-03-15T14:00:29.817Z,26.29
2019-03-15T14:02:59.394Z,27.17
2019-03-15T14:05:28.987Z,27.31
2019-03-15T14:08:06.959Z,24.77
2019-03-15T14:10:29.933Z,24.78
2019-03-15T14:12:59.489Z,24.90
2019-03-15T14:15:29.176Z,24.46
2019-03-15T14:17:58.721Z,24.70
2019-03-15T14:20:28.365Z,24.19
2019-03-15T14:22:57.965Z,24.43
2019-03-15T14:25:27.666Z,24.07
2019-03-15T14:27:57.337Z,24.04
2019-03-15T14:30:26.967Z,24.72
2019-03-15T14:32:56.673Z,24.91
2019-03-15T14:35:26.293Z,25.42
2019-03-15T14:37:55.860Z,25.80
2019-03-15T14:40:25.531Z,26.45
2019-03-15T14:42:55.270Z,26.21
2019-03-15T14:45:25.103Z,26.45
2019-03-15T14:47:54.673Z,26.12
2019-03-15T14:50:24.281Z,25.76
2019-03-15T14:52:53.905Z,26.34
2019-03-15T14:55:23.473Z,25.81
2019-03-15T14:57:53.684Z,26.10
2019-03-15T15:00:23.489Z,25.74
2019-03-15T15:02:53.073Z,25.99
2019-03-15T15:05:22.670Z,26.62
2019-03-15T15:07:52.329Z,26.63
2019-03-15T15:10:21.991Z,25.86
2019-03-15T15:12:51.570Z,25.29
2019-03-15T15:15:21.159Z,25.07
2019-03-15T15:17:50.750Z,25.29
2019-03-15T15:20:20.526Z,25.35
2019-03-15T15:22:50.139Z,25.58
2019-03-15T15:25:19.724Z,25.69
2019-03-15T15:27:49.312Z,25.67
2019-03-15T15:30:18.882Z,25.62
2019-03-15T15:32:48.456Z,26.05
2019-03-15T15:35:18.079Z,26.19
2019-03-15T15:37:47.707Z,26.24
2019-03-15T15:40:17.410Z,26.59
2019-03-15T15:42:47.003Z,26.15
2019-03-15T15:45:16.821Z,26.52
2019-03-15T15:47:46.416Z,26.80
2019-03-15T15:50:16.219Z,26.76
2019-03-15T15:52:45.829Z,26.53
2019-03-15T15:55:15.443Z,26.90
2019-03-15T15:57:45.069Z,27.16
2019-03-15T16:00:14.678Z,27.37
2019-03-15T16:02:44.272Z,27.58
2019-03-15T16:05:14.296Z,27.49
2019-03-15T16:07:43.870Z,27.68
2019-03-15T16:10:13.672Z,27.75
2019-03-15T16:12:43.444Z,27.87
2019-03-15T16:15:13.265Z,28.45
2019-03-15T16:17:45.470Z,28.25
2019-03-15T16:20:14.371Z,28.30
2019-03-15T16:22:44.008Z,28.56
2019-03-15T16:25:13.897Z,28.72
2019-03-15T16:27:43.424Z,28.93
2019-03-15T16:30:13.885Z,29.24
2019-03-15T16:32:43.547Z,29.23
2019-03-15T16:35:13.332Z,29.58
2019-03-15T16:37:43.055Z,29.44
2019-03-15T16:40:12.958Z,29.50
2019-03-15T16:42:42.563Z,29.71
2019-03-15T16:45:15.189Z,29.78
2019-03-15T16:47:45.037Z,29.89
2019-03-15T16:50:14.728Z,29.82
2019-03-15T16:52:44.382Z,29.58
2019-03-15T16:55:14.079Z,30.04
2019-03-15T16:57:43.669Z,29.86
2019-03-15T17:00:13.520Z,29.75
2019-03-15T17:02:43.107Z,29.72
2019-03-15T17:05:13.122Z,29.87
2019-03-15T17:07:42.777Z,29.99
2019-03-15T17:10:12.414Z,30.17
2019-03-15T17:12:42.002Z,30.19
2019-03-15T17:15:12.591Z,30.46
2019-03-15T17:17:42.198Z,30.58
2019-03-15T17:20:12.234Z,30.81
2019-03-15T17:22:41.911Z,31.16
2019-03-15T17:25:11.960Z,31.10
2019-03-15T17:27:41.543Z,31.32
2019-03-15T17:30:12.973Z,31.35
2019-03-15T17:32:42.706Z,31.77
2019-03-15T17:35:12.559Z,31.73
2019-03-15T17:37:42.330Z,31.60
2019-03-15T17:40:12.606Z,31.42
2019-03-15T17:42:42.179Z,31.28
2019-03-15T17:45:11.889Z,31.54
2019-03-15T17:47:41.477Z,31.53
2019-03-15T17:50:13.333Z,31.94
2019-03-15T17:52:43.066Z,31.81
2019-03-15T17:55:14.712Z,32.04
2019-03-15T17:57:45.772Z,32.34
2019-03-15T18:00:24.897Z,32.12
2019-03-15T18:02:54.497Z,32.25
2019-03-15T18:05:24.095Z,32.18
2019-03-15T18:07:53.840Z,32.36
2019-03-15T18:10:23.442Z,32.31
2019-03-15T18:12:53.093Z,32.22
2019-03-15T18:15:22.784Z,32.01
2019-03-15T18:17:52.383Z,32.08
2019-03-15T18:20:22.069Z,31.99
2019-03-15T18:22:52.063Z,32.50
2019-03-15T18:25:21.741Z,32.37
2019-03-15T18:27:51.932Z,32.01
2019-03-15T18:30:21.619Z,32.02
2019-03-15T18:32:51.699Z,31.99
2019-03-15T18:35:33.087Z,31.80
2019-03-15T18:37:52.662Z,31.76
2019-03-15T18:40:22.630Z,31.71
2019-03-15T18:42:52.214Z,31.46
2019-03-15T18:45:21.932Z,31.62
2019-03-15T18:47:51.692Z,31.67
2019-03-15T18:50:22.396Z,31.51
2019-03-15T18:52:51.997Z,31.18
2019-03-15T18:55:21.599Z,31.28
2019-03-15T18:57:51.364Z,31.62
2019-03-15T19:00:20.967Z,31.44
2019-03-15T19:02:50.645Z,31.33
2019-03-15T19:05:20.273Z,31.01
2019-03-15T19:07:50.012Z,30.69
2019-03-15T19:10:19.585Z,30.94
2019-03-15T19:12:49.213Z,31.39
2019-03-15T19:15:18.811Z,31.29
2019-03-15T19:17:48.427Z,31.61
2019-03-15T19:20:18.230Z,31.92
2019-03-15T19:22:47.847Z,31.77
2019-03-15T19:25:17.769Z,31.83
2019-03-15T19:27:50.231Z,31.27
2019-03-15T19:30:19.923Z,32.13
2019-03-15T19:32:49.563Z,31.83
2019-03-15T19:35:19.226Z,32.90
2019-03-15T19:37:48.814Z,33.60
2019-03-15T19:40:18.534Z,34.31
2019-03-15T19:42:48.152Z,34.70
2019-03-15T19:45:18.350Z,35.30
2019-03-15T19:47:48.034Z,35.19
2019-03-15T19:50:17.698Z,35.51
2019-03-15T19:52:47.424Z,35.67
2019-03-15T19:55:17.096Z,36.33
2019-03-15T19:57:46.807Z,37.32
2019-03-15T20:00:16.675Z,37.31
2019-03-15T20:02:46.482Z,37.52
2019-03-15T20:05:16.172Z,38.09
2019-03-15T20:07:47.973Z,38.26
2019-03-15T20:10:21.707Z,38.99
2019-03-15T20:12:51.327Z,38.71
2019-03-15T20:15:20.963Z,39.26
2019-03-15T20:17:50.561Z,39.24
2019-03-15T20:20:20.223Z,39.08
2019-03-15T20:22:49.846Z,39.28
2019-03-15T20:25:19.569Z,39.72
2019-03-15T20:27:49.142Z,39.82
2019-03-15T20:30:22.069Z,40.07
2019-03-15T20:32:50.037Z,39.88
2019-03-15T20:35:19.692Z,39.76
2019-03-15T20:37:49.348Z,39.19
2019-03-15T20:40:19.071Z,39.32
2019-03-15T20:42:48.719Z,39.65
2019-03-15T20:45:18.558Z,40.16
2019-03-15T20:47:51.041Z,39.81
2019-03-15T20:50:20.837Z,39.76
2019-03-15T20:52:50.701Z,39.95
2019-03-15T20:55:20.748Z,40.16
2019-03-15T20:57:50.483Z,39.86
2019-03-15T21:00:34.386Z,39.69
2019-03-15T21:02:52.689Z,39.94
2019-03-15T21:05:22.442Z,39.74
2019-03-15T21:07:52.558Z,39.45
2019-03-15T21:10:22.552Z,39.03
2019-03-15T21:12:52.915Z,39.41
2019-03-15T21:15:22.908Z,39.16
2019-03-15T21:17:53.021Z,39.19
2019-03-15T21:20:23.097Z,39.07
2019-03-15T21:22:52.912Z,39.22
2019-03-15T21:25:22.555Z,39.30
2019-03-15T21:27:54.577Z,38.70
2019-03-15T21:30:23.519Z,39.46
2019-03-15T21:32:53.302Z,39.27
2019-03-15T21:35:22.937Z,39.65
2019-03-15T21:37:52.589Z,39.96
2019-03-15T21:40:22.243Z,40.09
2019-03-15T21:42:51.878Z,39.95
2019-03-15T21:45:21.547Z,39.74
2019-03-15T21:47:51.203Z,40.24
2019-03-15T21:50:20.826Z,41.08
2019-03-15T21:52:50.434Z,41.22
2019-03-15T21:55:20.073Z,41.31
2019-03-15T21:57:49.712Z,41.22
2019-03-15T22:00:19.338Z,41.44
2019-03-15T22:02:48.951Z,41.26
2019-03-15T22:05:18.569Z,41.27
2019-03-15T22:07:48.177Z,41.14
2019-03-15T22:10:17.788Z,41.54
2019-03-15T22:12:47.493Z,41.92
2019-03-15T22:15:17.205Z,42.09
2019-03-15T22:17:46.879Z,41.83
2019-03-15T22:20:17.106Z,41.14
2019-03-15T22:22:46.726Z,41.71
2019-03-15T22:25:16.319Z,42.05
2019-03-15T22:27:45.938Z,41.98
2019-03-15T22:30:15.745Z,42.16
2019-03-15T22:32:45.413Z,42.40
2019-03-15T22:35:15.213Z,42.25
2019-03-15T22:37:44.795Z,42.34
2019-03-15T22:40:14.480Z,42.04
2019-03-15T22:42:44.135Z,42.18
2019-03-15T22:45:13.868Z,41.68
2019-03-15T22:47:43.452Z,41.94
2019-03-15T22:50:13.434Z,41.81
2019-03-15T22:52:43.228Z,41.76
2019-03-15T22:55:13.113Z,41.39
2019-03-15T22:57:42.794Z,41.21
2019-03-15T23:00:14.380Z,42.07
2019-03-15T23:02:44.083Z,41.53
2019-03-15T23:05:14.582Z,42.25
2019-03-15T23:07:45.266Z,42.72
2019-03-15T23:10:15.068Z,41.98
2019-03-15T23:12:44.673Z,42.13
2019-03-15T23:15:14.371Z,42.25
2019-03-15T23:17:43.991Z,41.91
2019-03-15T23:20:13.566Z,42.09
2019-03-15T23:22:43.213Z,41.90
2019-03-15T23:25:12.831Z,41.76
2019-03-15T23:27:42.452Z,42.21
2019-03-15T23:30:12.147Z,42.34
2019-03-15T23:32:41.740Z,42.40
2019-03-15T23:35:11.497Z,42.22
2019-03-15T23:37:41.126Z,41.59
2019-03-15T23:40:10.800Z,42.20
2019-03-15T23:42:40.442Z,42.14
2019-03-15T23:45:10.571Z,42.29
2019-03-15T23:47:40.221Z,42.04
2019-03-15T23:50:09.955Z,42.18
2019-03-15T23:52:39.557Z,42.24
2019-03-15T23:55:09.364Z,41.64
2019-03-15T23:57:39.042Z,42.07
